createdAt,value
2022-10-19T00:00:22.454Z,80.40
2022-10-19T00:03:08.156Z,77.03
2022-10-19T00:05:53.722Z,84.00
2022-10-19T00:08:39.654Z,79.13
2022-10-19T00:11:26.203Z,79.07
2022-10-19T00:14:15.755Z,82.43
2022-10-19T00:17:01.276Z,83.07
2022-10-19T00:19:46.734Z,82.30
2022-10-19T00:22:32.789Z,81.88
2022-10-19T00:25:18.592Z,81.32
2022-10-19T00:28:04.734Z,83.78
2022-10-19T00:30:50.517Z,81.05
2022-10-19T00:33:36.535Z,86.57
2022-10-19T00:36:26.017Z,85.45
2022-10-19T00:39:14.050Z,79.93
2022-10-19T00:41:59.633Z,83.65
2022-10-19T00:44:48.257Z,81.07
2022-10-19T00:47:34.723Z,85.30
2022-10-19T00:50:20.598Z,81.15
2022-10-19T00:53:06.668Z,89.50
2022-10-19T00:55:52.367Z,78.07
2022-10-19T00:58:39.614Z,83.53
2022-10-19T01:01:27.371Z,86.85
2022-10-19T01:04:13.921Z,86.40
2022-10-19T01:07:00.309Z,81.43
2022-10-19T01:09:46.485Z,88.07
2022-10-19T01:12:42.020Z,82.25
2022-10-19T01:15:42.346Z,83.15
2022-10-19T01:18:49.907Z,85.30
2022-10-19T01:21:46.073Z,79.22
2022-10-19T01:24:46.888Z,73.90
2022-10-19T01:28:04.542Z,85.90
2022-10-19T01:31:00.647Z,81.47
2022-10-19T01:33:54.628Z,81.75
2022-10-19T01:37:02.010Z,79.95
2022-10-19T01:39:49.843Z,73.10
2022-10-19T01:42:59.698Z,79.20
2022-10-19T01:45:54.382Z,73.88
2022-10-19T01:48:43.418Z,77.65
2022-10-19T01:51:38.528Z,72.15
2022-10-19T01:54:27.488Z,68.82
2022-10-19T01:57:19.618Z,67.45
2022-10-19T02:00:07.888Z,77.72
2022-10-19T02:03:01.234Z,75.00
2022-10-19T02:05:49.621Z,66.78
2022-10-19T02:08:46.615Z,67.88
2022-10-19T02:11:33.183Z,70.20
2022-10-19T02:14:23.498Z,74.90
2022-10-19T02:17:12.642Z,63.90
2022-10-19T02:19:59.246Z,66.47
2022-10-19T02:22:45.733Z,70.90
2022-10-19T02:25:32.380Z,69.05
2022-10-19T02:28:18.096Z,77.78
2022-10-19T02:31:03.899Z,77.53
2022-10-19T02:33:49.852Z,75.93
2022-10-19T02:36:35.590Z,78.63
2022-10-19T02:39:21.834Z,75.25
2022-10-19T02:42:24.631Z,81.68
2022-10-19T02:45:23.318Z,82.57
2022-10-19T02:48:16.842Z,80.75
2022-10-19T02:51:02.738Z,87.82
2022-10-19T02:53:48.153Z,82.85
2022-10-19T02:56:35.108Z,79.15
2022-10-19T02:59:20.669Z,85.20
2022-10-19T03:02:06.242Z,78.85
2022-10-19T03:04:52.016Z,76.40
2022-10-19T03:07:37.941Z,90.68
2022-10-19T03:10:23.774Z,92.18
2022-10-19T03:13:09.297Z,77.43
2022-10-19T03:15:54.773Z,89.22
2022-10-19T03:18:40.737Z,88.57
2022-10-19T03:21:26.278Z,88.85
2022-10-19T03:24:13.005Z,81.93
2022-10-19T03:26:58.709Z,78.43
2022-10-19T03:29:44.135Z,82.43
2022-10-19T03:32:29.883Z,80.40
2022-10-19T03:35:15.202Z,81.13
2022-10-19T03:38:00.927Z,78.95
2022-10-19T03:40:46.610Z,82.40
2022-10-19T03:43:32.255Z,76.25
2022-10-19T03:46:18.938Z,76.07
2022-10-19T03:49:05.331Z,78.95
2022-10-19T03:51:50.861Z,78.10
2022-10-19T03:54:36.405Z,82.30
2022-10-19T03:57:22.009Z,78.00
2022-10-19T04:00:09.117Z,82.43
2022-10-19T04:02:58.049Z,83.97
2022-10-19T04:05:43.763Z,78.68
2022-10-19T04:08:29.821Z,85.72
2022-10-19T04:11:23.136Z,74.55
2022-10-19T04:17:04.367Z,76.57
2022-10-19T04:19:50.258Z,77.40
2022-10-19T04:22:35.798Z,74.47
2022-10-19T04:25:21.735Z,75.35
2022-10-19T04:28:07.423Z,69.93
2022-10-19T04:30:53.169Z,73.47
2022-10-19T04:33:39.259Z,72.20
2022-10-19T04:36:25.123Z,79.05
2022-10-19T04:39:11.432Z,76.43
2022-10-19T04:41:57.065Z,83.55
2022-10-19T04:44:42.777Z,85.72
2022-10-19T04:47:29.669Z,79.90
2022-10-19T04:50:15.266Z,81.72
2022-10-19T04:53:01.179Z,80.70
2022-10-19T04:55:46.741Z,79.68
2022-10-19T04:58:32.879Z,78.35
2022-10-19T05:01:20.981Z,77.68
2022-10-19T05:04:06.731Z,80.72
2022-10-19T05:06:52.107Z,90.07
2022-10-19T05:09:40.337Z,81.88
2022-10-19T05:12:25.957Z,84.07
2022-10-19T05:15:11.569Z,77.57
2022-10-19T05:17:57.689Z,79.90
2022-10-19T05:20:43.240Z,80.05
2022-10-19T05:26:28.067Z,84.30
2022-10-19T05:29:14.668Z,83.45
2022-10-19T05:32:00.359Z,76.88
2022-10-19T05:34:46.090Z,86.45
2022-10-19T05:37:32.170Z,76.68
2022-10-19T05:40:17.877Z,81.80
2022-10-19T05:43:03.535Z,89.30
2022-10-19T05:45:49.119Z,79.70
2022-10-19T05:48:35.821Z,76.65
2022-10-19T05:51:22.619Z,86.25
2022-10-19T05:54:08.593Z,80.05
2022-10-19T05:56:53.966Z,94.32
2022-10-19T05:59:39.630Z,93.53
2022-10-19T06:02:25.113Z,80.93
2022-10-19T06:05:10.695Z,85.47
2022-10-19T06:07:56.805Z,83.35
2022-10-19T06:10:43.044Z,84.85
2022-10-19T06:13:28.716Z,79.55
2022-10-19T06:16:16.065Z,76.28
2022-10-19T06:19:01.932Z,79.15
2022-10-19T06:21:47.511Z,78.30
2022-10-19T06:24:32.985Z,76.38
2022-10-19T06:27:18.562Z,70.30
2022-10-19T06:30:04.775Z,75.20
2022-10-19T06:32:50.236Z,74.38
2022-10-19T06:35:35.711Z,71.85
2022-10-19T06:38:21.182Z,68.00
2022-10-19T06:41:07.273Z,62.60
2022-10-19T06:43:54.914Z,71.13
2022-10-19T06:46:40.758Z,62.45
2022-10-19T06:49:26.382Z,63.13
2022-10-19T06:52:12.097Z,65.05
2022-10-19T06:54:57.595Z,68.85
2022-10-19T06:57:43.785Z,74.53
2022-10-19T07:00:29.985Z,74.03
2022-10-19T07:03:15.607Z,64.00
2022-10-19T07:06:03.357Z,65.85
2022-10-19T07:08:49.824Z,70.00
2022-10-19T07:11:35.390Z,63.13
2022-10-19T07:14:21.303Z,66.82
2022-10-19T07:17:07.657Z,67.03
2022-10-19T07:19:53.130Z,80.43
2022-10-19T07:22:38.638Z,66.07
2022-10-19T07:25:24.974Z,74.22
2022-10-19T07:28:11.018Z,73.63
2022-10-19T07:30:57.278Z,66.53
2022-10-19T07:33:42.796Z,68.65
2022-10-19T07:36:30.431Z,73.47
2022-10-19T07:39:19.727Z,75.88
2022-10-19T07:42:05.519Z,77.22
2022-10-19T07:44:50.978Z,71.88
2022-10-19T07:47:36.607Z,71.00
2022-10-19T07:50:25.056Z,75.35
2022-10-19T07:53:10.440Z,83.03
2022-10-19T07:55:56.226Z,78.43
2022-10-19T07:58:42.577Z,72.65
2022-10-19T08:01:30.682Z,73.97
2022-10-19T08:07:23.163Z,66.10
2022-10-19T08:10:09.516Z,69.80
2022-10-19T08:12:55.618Z,70.60
2022-10-19T08:15:41.475Z,75.03
2022-10-19T08:18:27.750Z,92.30
2022-10-19T08:21:16.912Z,80.93
2022-10-19T08:24:03.474Z,78.95
2022-10-19T08:26:51.371Z,76.35
2022-10-19T08:29:37.309Z,74.63
2022-10-19T08:32:23.024Z,72.85
2022-10-19T08:35:10.719Z,73.80
2022-10-19T08:37:58.706Z,75.03
2022-10-19T08:40:45.789Z,72.35
2022-10-19T08:43:38.803Z,74.93
2022-10-19T08:46:24.234Z,64.28
2022-10-19T08:49:20.363Z,65.88
2022-10-19T08:52:11.685Z,66.22
2022-10-19T08:54:58.628Z,69.35
2022-10-19T08:58:18.563Z,66.15
2022-10-19T09:01:07.302Z,60.67
2022-10-19T09:04:23.454Z,67.43
2022-10-19T09:07:26.842Z,64.60
2022-10-19T09:13:04.234Z,68.10
2022-10-19T09:15:52.402Z,47.97
2022-10-19T09:18:38.315Z,71.38
2022-10-19T09:21:38.053Z,63.03
2022-10-19T09:24:38.785Z,46.17
2022-10-19T09:27:37.333Z,45.47
2022-10-19T09:30:24.104Z,38.72
2022-10-19T09:33:19.042Z,30.25
2022-10-19T09:36:07.944Z,39.05
2022-10-19T09:38:53.572Z,46.30
2022-10-19T09:41:53.890Z,41.75
2022-10-19T09:44:39.918Z,53.92
2022-10-19T09:47:39.881Z,52.95
2022-10-19T09:50:31.297Z,66.40
2022-10-19T09:53:22.123Z,50.67
2022-10-19T09:56:09.000Z,51.90
2022-10-19T09:58:59.373Z,44.75
2022-10-19T10:01:45.375Z,46.78
2022-10-19T10:04:31.279Z,50.08
2022-10-19T10:07:18.708Z,46.15
2022-10-19T10:10:19.419Z,58.13
2022-10-19T10:13:06.030Z,53.25
2022-10-19T10:16:00.805Z,57.25
2022-10-19T10:18:59.894Z,64.63
2022-10-19T10:21:47.154Z,49.15
2022-10-19T10:24:34.416Z,54.45
2022-10-19T10:27:33.743Z,48.15
2022-10-19T10:30:19.766Z,65.10
2022-10-19T10:33:21.147Z,49.00
2022-10-19T10:36:12.406Z,50.28
2022-10-19T10:39:08.426Z,56.28
2022-10-19T10:41:55.291Z,51.92
2022-10-19T10:44:48.971Z,47.38
2022-10-19T10:47:39.353Z,69.45
2022-10-19T10:50:31.529Z,61.42
2022-10-19T10:53:35.776Z,49.40
2022-10-19T10:56:26.842Z,53.15
2022-10-19T10:59:24.199Z,51.92
2022-10-19T11:05:21.209Z,62.83
2022-10-19T11:08:12.512Z,63.15
2022-10-19T11:11:15.142Z,54.05
2022-10-19T11:14:17.286Z,52.20
2022-10-19T11:17:14.178Z,59.13
2022-10-19T11:19:59.898Z,54.75
2022-10-19T11:23:12.081Z,59.63
2022-10-19T11:26:16.363Z,47.90
2022-10-19T11:29:02.250Z,52.08
2022-10-19T11:31:55.042Z,58.30
2022-10-19T11:35:06.950Z,59.25
2022-10-19T11:38:30.632Z,56.95
2022-10-19T11:41:19.508Z,57.78
2022-10-19T11:44:17.168Z,63.05
2022-10-19T11:47:11.692Z,57.95
2022-10-19T11:50:10.517Z,72.07
2022-10-19T11:53:18.423Z,58.58
2022-10-19T11:56:04.434Z,55.40
2022-10-19T12:02:41.283Z,49.75
2022-10-19T12:05:52.603Z,42.05
2022-10-19T12:08:51.283Z,36.70
2022-10-19T12:11:58.333Z,54.92
2022-10-19T12:14:46.958Z,57.42
2022-10-19T12:17:37.051Z,71.03
2022-10-19T12:20:39.837Z,58.38
2022-10-19T12:23:38.894Z,64.70
2022-10-19T12:26:27.463Z,63.58
2022-10-19T12:29:23.262Z,47.55
2022-10-19T12:32:13.206Z,53.00
2022-10-19T12:35:09.408Z,56.25
2022-10-19T12:38:03.706Z,48.88
2022-10-19T12:41:05.319Z,53.78
2022-10-19T12:44:17.907Z,55.13
2022-10-19T12:47:18.818Z,54.88
2022-10-19T12:50:05.097Z,55.75
2022-10-19T12:52:52.884Z,59.38
2022-10-19T12:55:40.312Z,58.55
2022-10-19T12:58:47.754Z,57.65
2022-10-19T13:01:36.588Z,51.40
2022-10-19T13:04:28.894Z,43.13
2022-10-19T13:07:18.626Z,62.20
2022-10-19T13:10:07.648Z,59.35
2022-10-19T13:12:54.416Z,41.05
2022-10-19T13:15:39.826Z,43.25
2022-10-19T13:18:59.810Z,40.47
2022-10-19T13:22:26.668Z,45.70
2022-10-19T13:25:29.773Z,47.00
2022-10-19T13:28:15.652Z,56.38
2022-10-19T13:31:06.117Z,57.53
2022-10-19T13:33:55.908Z,55.97
2022-10-19T13:37:00.467Z,50.65
2022-10-19T13:39:47.625Z,44.72
2022-10-19T13:42:33.810Z,45.90
2022-10-19T13:45:24.475Z,47.83
2022-10-19T13:48:27.286Z,46.63
2022-10-19T13:51:21.862Z,39.15
2022-10-19T13:54:29.350Z,44.55
2022-10-19T13:57:33.946Z,52.80
2022-10-19T14:00:51.063Z,52.10
2022-10-19T14:03:42.446Z,51.33
2022-10-19T14:06:47.331Z,54.70
2022-10-19T14:09:41.825Z,49.13
2022-10-19T14:12:30.966Z,55.90
2022-10-19T14:15:29.534Z,60.55
2022-10-19T14:18:27.781Z,54.28
2022-10-19T14:21:13.851Z,52.58
2022-10-19T14:24:00.155Z,52.58
2022-10-19T14:26:46.802Z,54.45
2022-10-19T14:29:42.865Z,48.58
2022-10-19T14:32:30.257Z,52.15
2022-10-19T14:35:28.211Z,50.83
2022-10-19T14:38:27.903Z,56.33
2022-10-19T14:41:21.594Z,57.22
2022-10-19T14:44:40.364Z,40.05
2022-10-19T14:47:30.439Z,54.38
2022-10-19T14:50:16.184Z,56.22
2022-10-19T14:53:40.322Z,62.67
2022-10-19T14:56:38.266Z,52.22
2022-10-19T14:59:32.660Z,59.20
2022-10-19T15:02:27.032Z,53.67
2022-10-19T15:05:26.291Z,48.03
2022-10-19T15:08:34.670Z,57.53
2022-10-19T15:11:47.595Z,42.00
2022-10-19T15:14:33.884Z,59.57
2022-10-19T15:17:30.885Z,59.03
2022-10-19T15:20:24.169Z,56.38
2022-10-19T15:23:32.705Z,38.70
2022-10-19T15:26:27.011Z,56.28
2022-10-19T15:29:57.628Z,56.53
2022-10-19T15:32:44.554Z,57.35
2022-10-19T15:35:35.070Z,55.78
2022-10-19T15:38:25.587Z,53.63
2022-10-19T15:41:20.899Z,50.85
2022-10-19T15:44:27.254Z,57.25
2022-10-19T15:47:15.574Z,47.10
2022-10-19T15:50:02.891Z,48.85
2022-10-19T15:52:48.586Z,45.70
2022-10-19T15:55:34.594Z,55.65
2022-10-19T15:58:21.563Z,48.25
2022-10-19T16:01:19.458Z,45.50
2022-10-19T16:04:05.599Z,47.80
2022-10-19T16:06:51.456Z,47.78
2022-10-19T16:09:37.267Z,49.83
2022-10-19T16:12:24.325Z,47.85
2022-10-19T16:15:17.404Z,57.15
2022-10-19T16:20:48.495Z,53.25
2022-10-19T16:23:39.396Z,43.10
2022-10-19T16:26:28.258Z,40.67
2022-10-19T16:29:13.792Z,39.70
2022-10-19T16:31:59.646Z,41.47
2022-10-19T16:34:46.622Z,38.17
2022-10-19T16:37:32.422Z,54.42
2022-10-19T16:40:18.035Z,54.67
2022-10-19T16:43:04.538Z,50.47
2022-10-19T16:45:50.060Z,53.13
2022-10-19T16:48:35.964Z,55.75
2022-10-19T16:51:35.675Z,53.53
2022-10-19T16:54:21.503Z,62.53
2022-10-19T16:57:09.762Z,70.68
2022-10-19T16:59:55.796Z,66.38
2022-10-19T17:02:44.315Z,69.43
2022-10-19T17:05:32.030Z,75.43
2022-10-19T17:08:21.623Z,62.22
2022-10-19T17:11:38.106Z,65.47
2022-10-19T17:14:23.937Z,68.25
2022-10-19T17:17:10.869Z,75.35
2022-10-19T17:19:56.259Z,74.47
2022-10-19T17:22:41.926Z,73.95
2022-10-19T17:25:27.533Z,74.18
2022-10-19T17:28:13.294Z,76.30
2022-10-19T17:31:04.131Z,72.18
2022-10-19T17:33:50.169Z,65.97
2022-10-19T17:36:41.681Z,66.93
2022-10-19T17:39:29.948Z,64.82
2022-10-19T17:42:15.564Z,68.63
2022-10-19T17:45:01.279Z,77.53
2022-10-19T17:47:47.018Z,71.10
2022-10-19T17:50:32.911Z,76.28
2022-10-19T17:53:18.493Z,64.82
2022-10-19T17:56:06.561Z,71.20
2022-10-19T17:58:52.558Z,60.15
2022-10-19T18:01:38.022Z,65.00
2022-10-19T18:04:23.563Z,60.20
2022-10-19T18:07:09.355Z,60.17
2022-10-19T18:09:54.938Z,56.47
2022-10-19T18:12:40.714Z,67.85
2022-10-19T18:15:26.231Z,58.17
2022-10-19T18:18:11.934Z,58.95
2022-10-19T18:20:57.781Z,60.00
2022-10-19T18:23:44.009Z,66.97
2022-10-19T18:26:32.076Z,57.10
2022-10-19T18:29:21.438Z,63.20
2022-10-19T18:32:07.174Z,53.63
2022-10-19T18:34:52.903Z,67.18
2022-10-19T18:37:38.746Z,59.33
2022-10-19T18:40:24.302Z,60.85
2022-10-19T18:43:10.033Z,74.93
2022-10-19T18:45:58.064Z,71.18
2022-10-19T18:48:43.746Z,70.72
2022-10-19T18:51:29.391Z,62.67
2022-10-19T18:54:15.201Z,75.72
2022-10-19T18:57:00.862Z,67.78
2022-10-19T18:59:47.402Z,74.85
2022-10-19T19:02:46.498Z,66.05
2022-10-19T19:05:33.377Z,67.85
2022-10-19T19:08:19.121Z,59.00
2022-10-19T19:11:20.326Z,54.45
2022-10-19T19:14:10.830Z,74.90
2022-10-19T19:16:56.735Z,58.75
2022-10-19T19:19:42.201Z,67.55
2022-10-19T19:22:27.530Z,70.88
2022-10-19T19:25:13.050Z,64.00
2022-10-19T19:27:58.558Z,66.43
2022-10-19T19:30:46.361Z,71.57
2022-10-19T19:33:33.093Z,71.10
2022-10-19T19:36:19.517Z,72.13
2022-10-19T19:39:05.517Z,61.42
2022-10-19T19:41:51.435Z,67.13
2022-10-19T19:44:36.965Z,64.45
2022-10-19T19:47:23.118Z,64.47
2022-10-19T19:50:09.066Z,65.90
2022-10-19T19:52:55.022Z,60.22
2022-10-19T19:55:40.374Z,65.93
2022-10-19T19:58:26.555Z,69.53
2022-10-19T20:01:15.608Z,68.65
2022-10-19T20:06:53.227Z,62.63
2022-10-19T20:09:38.911Z,63.63
2022-10-19T20:12:24.463Z,71.55
2022-10-19T20:15:14.474Z,60.53
2022-10-19T20:17:59.798Z,64.00
2022-10-19T20:20:45.409Z,71.15
2022-10-19T20:23:31.739Z,69.25
2022-10-19T20:26:22.612Z,73.63
2022-10-19T20:29:07.942Z,72.75
2022-10-19T20:31:53.495Z,73.82
2022-10-19T20:34:39.406Z,77.97
2022-10-19T20:37:26.060Z,73.22
2022-10-19T20:40:11.974Z,71.88
2022-10-19T20:42:57.510Z,73.78
2022-10-19T20:45:43.025Z,78.53
2022-10-19T20:48:29.448Z,87.47
2022-10-19T20:51:20.440Z,83.55
2022-10-19T20:54:08.726Z,87.32
2022-10-19T20:56:54.542Z,74.75
2022-10-19T20:59:40.223Z,73.35
2022-10-19T21:02:26.406Z,74.25
2022-10-19T21:05:11.861Z,82.15
2022-10-19T21:07:57.448Z,77.53
2022-10-19T21:10:43.138Z,63.97
2022-10-19T21:13:28.853Z,70.22
2022-10-19T21:16:17.686Z,71.88
2022-10-19T21:19:06.373Z,73.82
2022-10-19T21:21:57.366Z,67.10
2022-10-19T21:24:42.828Z,69.63
2022-10-19T21:27:28.470Z,67.32
2022-10-19T21:30:14.632Z,71.45
2022-10-19T21:33:00.354Z,79.72
2022-10-19T21:35:46.169Z,79.18
2022-10-19T21:38:31.837Z,76.40
2022-10-19T21:41:23.721Z,71.85
2022-10-19T21:44:11.871Z,75.75
2022-10-19T21:46:57.519Z,83.07
2022-10-19T21:49:42.910Z,72.55
2022-10-19T21:52:28.538Z,72.03
2022-10-19T21:55:14.358Z,68.38
2022-10-19T21:57:59.915Z,77.63
2022-10-19T22:00:45.457Z,79.55
2022-10-19T22:03:31.019Z,81.10
2022-10-19T22:06:16.825Z,87.32
2022-10-19T22:09:04.643Z,81.15
2022-10-19T22:11:50.246Z,82.00
2022-10-19T22:14:35.719Z,84.28
2022-10-19T22:17:21.331Z,87.45
2022-10-19T22:20:07.524Z,89.32
2022-10-19T22:22:54.939Z,95.05
2022-10-19T22:25:40.558Z,93.72
2022-10-19T22:28:27.032Z,87.25
2022-10-19T22:31:13.115Z,89.82
2022-10-19T22:34:01.235Z,90.07
2022-10-19T22:36:46.945Z,86.88
2022-10-19T22:39:32.834Z,79.97
2022-10-19T22:42:56.489Z,72.22
2022-10-19T22:46:20.307Z,73.25
2022-10-19T22:49:43.812Z,79.93
2022-10-19T22:52:57.330Z,82.40
2022-10-19T22:55:42.753Z,73.95
2022-10-19T22:58:28.249Z,72.43
2022-10-19T23:01:15.767Z,81.97
2022-10-19T23:04:01.525Z,83.03
2022-10-19T23:06:47.509Z,90.20
2022-10-19T23:09:32.906Z,92.65
2022-10-19T23:12:18.355Z,88.82
2022-10-19T23:15:04.513Z,75.20
2022-10-19T23:17:50.244Z,78.38
2022-10-19T23:20:35.869Z,77.22
2022-10-19T23:23:21.834Z,81.43
2022-10-19T23:26:11.759Z,82.75
2022-10-19T23:28:57.141Z,87.22
2022-10-19T23:31:43.500Z,96.30
2022-10-19T23:34:29.477Z,92.97
2022-10-19T23:37:15.130Z,88.82
2022-10-19T23:40:01.427Z,88.85
2022-10-19T23:42:47.149Z,90.13
2022-10-19T23:45:32.714Z,91.03
2022-10-19T23:48:18.506Z,88.97
2022-10-19T23:51:08.974Z,83.97
2022-10-19T23:53:55.113Z,91.88
2022-10-19T23:56:40.968Z,93.30
2022-10-19T23:59:26.653Z,86.13
